Time;durP1;ratioP1;P1;durP2;ratioP2;P2;SDS_P1;SDS_P2;PMS_P1;PMS_P2;Temp;Humidity;BMP_temperature;BMP_pressure;BME280_temperature;BME280_humidity;BME280_pressure;Samples;Min_cycle;Max_cycle;Signal;HPM_P1;HPM_P2
2023/09/19 00:01:31;;;;;;;1.53;0.80;;;;;;;14.69;100.00;99977.00;6025751;28;20042;-64
2023/09/19 00:04:28;;;;;;;1.63;0.70;;;;;;;14.71;100.00;99993.66;6024250;28;20038;-65
2023/09/19 00:07:24;;;;;;;2.65;0.70;;;;;;;14.63;100.00;99983.09;6025537;28;20453;-65
2023/09/19 00:10:21;;;;;;;1.35;0.75;;;;;;;14.69;100.00;99995.69;6019737;28;20045;-65
2023/09/19 00:13:18;;;;;;;1.55;0.80;;;;;;;14.90;100.00;100009.03;6025401;28;20045;-65
2023/09/19 00:16:14;;;;;;;0.43;0.38;;;;;;;14.84;100.00;100002.59;6025013;28;20398;-65
2023/09/19 00:19:10;;;;;;;1.63;0.70;;;;;;;14.87;100.00;100001.41;6025995;28;20479;-65
2023/09/19 00:22:05;;;;;;;1.70;0.83;;;;;;;14.88;100.00;99993.22;6031930;28;20030;-65
2023/09/19 00:25:00;;;;;;;3.37;0.60;;;;;;;14.89;100.00;100000.19;6024862;28;20035;-65
2023/09/19 00:27:56;;;;;;;1.50;0.80;;;;;;;14.71;100.00;99990.97;6023617;28;20394;-65
2023/09/19 00:30:51;;;;;;;4.17;0.80;;;;;;;14.78;100.00;100008.69;6027809;28;20042;-65
2023/09/19 00:33:48;;;;;;;1.48;0.85;;;;;;;14.71;100.00;99990.97;6030707;28;20104;-66
2023/09/19 00:36:45;;;;;;;1.40;0.63;;;;;;;14.71;100.00;100004.31;6029419;28;20037;-65
2023/09/19 00:39:40;;;;;;;2.15;0.73;;;;;;;14.70;100.00;100010.69;6030217;28;20034;-66
2023/09/19 00:42:38;;;;;;;1.17;0.75;;;;;;;14.78;100.00;99999.91;6030358;28;20089;-66
2023/09/19 00:45:33;;;;;;;3.08;0.80;;;;;;;14.99;100.00;100010.56;6029138;28;20528;-66
2023/09/19 00:48:29;;;;;;;4.20;0.95;;;;;;;14.86;100.00;100000.59;6027917;28;20038;-66
2023/09/19 00:51:25;;;;;;;1.23;0.80;;;;;;;14.89;100.00;100004.72;6030181;28;20101;-65
2023/09/19 00:54:21;;;;;;;2.03;0.80;;;;;;;14.82;100.00;100009.16;6029521;28;20452;-66
2023/09/19 00:57:17;;;;;;;2.15;0.80;;;;;;;14.75;100.00;100010.94;6029704;28;20054;-66
2023/09/19 01:00:16;;;;;;;3.25;1.05;;;;;;;14.70;100.00;100005.34;6028640;28;20038;-66
2023/09/19 01:03:13;;;;;;;2.70;0.93;;;;;;;14.64;100.00;100008.78;6029684;28;20033;-65
2023/09/19 01:06:08;;;;;;;2.20;0.98;;;;;;;14.70;100.00;100019.50;6027594;28;20034;-65
2023/09/19 01:09:04;;;;;;;4.03;1.10;;;;;;;14.62;100.00;100024.16;6028805;28;20042;-65
2023/09/19 01:12:01;;;;;;;3.10;1.20;;;;;;;14.48;100.00;100009.84;6029020;28;20033;-64
2023/09/19 01:15:05;;;;;;;3.10;1.23;;;;;;;14.68;100.00;100023.38;6027419;28;20076;-65
2023/09/19 01:18:37;;;;;;;2.35;1.25;;;;;;;14.54;100.00;100014.41;6029725;28;20030;-65
2023/09/19 01:21:46;;;;;;;3.63;1.83;;;;;;;14.63;100.00;100020.47;6021278;28;20117;-65
2023/09/19 01:25:10;;;;;;;3.97;1.83;;;;;;;14.63;100.00;100031.13;6027910;28;20049;-65
2023/09/19 01:28:36;;;;;;;4.03;1.98;;;;;;;14.55;100.00;100028.56;6028713;28;20057;-65
2023/09/19 01:31:37;;;;;;;4.10;1.90;;;;;;;14.56;100.00;100032.91;6027948;28;20050;-65
2023/09/19 01:34:52;;;;;;;4.30;2.05;;;;;;;14.60;100.00;100042.19;6027827;28;20065;-65
2023/09/19 01:37:48;;;;;;;6.15;2.63;;;;;;;14.52;100.00;100035.13;6028795;28;20034;-65
2023/09/19 01:40:52;;;;;;;5.03;2.30;;;;;;;14.45;100.00;100038.72;6028302;28;20045;-66
2023/09/19 01:43:49;;;;;;;4.28;2.33;;;;;;;14.49;100.00;100043.50;6027630;28;20402;-66
2023/09/19 01:46:47;;;;;;;5.50;2.15;;;;;;;14.43;100.00;100038.09;6026911;28;20417;-65
2023/09/19 01:50:14;;;;;;;4.43;2.53;;;;;;;14.53;100.00;100059.97;6029020;28;20038;-65
2023/09/19 01:53:18;;;;;;;8.38;2.42;;;;;;;14.54;100.00;100066.97;6019820;28;20132;-65
2023/09/19 01:56:21;;;;;;;5.05;2.50;;;;;;;14.46;100.00;100051.06;6026671;28;20174;-65
2023/09/19 01:59:21;;;;;;;9.30;3.50;;;;;;;14.60;100.00;100071.53;6027726;28;20126;-65
2023/09/19 02:02:17;;;;;;;7.00;3.20;;;;;;;14.63;100.00;100069.31;6031663;28;20037;-64
2023/09/19 02:05:13;;;;;;;7.00;2.78;;;;;;;14.52;100.00;100044.97;6027618;28;20470;-65
2023/09/19 02:08:10;;;;;;;4.88;2.90;;;;;;;14.65;100.00;100066.47;6028575;28;20042;-65
2023/09/19 02:11:06;;;;;;;6.90;2.95;;;;;;;14.62;100.00;100066.84;6021103;28;20038;-65
2023/09/19 02:14:02;;;;;;;6.95;3.28;;;;;;;14.51;100.00;100062.81;6022460;28;20041;-65
2023/09/19 02:16:57;;;;;;;10.60;4.53;;;;;;;14.52;100.00;100067.13;6026325;28;20050;-65
2023/09/19 02:19:56;;;;;;;6.43;3.63;;;;;;;14.46;100.00;100062.53;6030392;28;20400;-65
2023/09/19 02:22:52;;;;;;;11.10;3.17;;;;;;;14.48;100.00;100068.53;6031694;28;20359;-65
2023/09/19 02:25:54;;;;;;;8.60;3.80;;;;;;;14.47;100.00;100068.72;6026477;28;20030;-66
2023/09/19 02:28:49;;;;;;;9.02;4.00;;;;;;;14.42;100.00;100076.44;6027884;28;20042;-65
2023/09/19 02:31:46;;;;;;;7.33;3.90;;;;;;;14.41;100.00;100080.97;6027734;28;20030;-65
2023/09/19 02:34:41;;;;;;;6.43;3.60;;;;;;;14.38;100.00;100073.31;6027663;28;20114;-64
2023/09/19 02:37:37;;;;;;;8.38;3.92;;;;;;;14.42;100.00;100079.13;6027382;28;20038;-65
2023/09/19 02:40:35;;;;;;;10.33;3.30;;;;;;;14.54;100.00;100082.97;6026577;28;20074;-65
2023/09/19 02:43:30;;;;;;;9.63;3.92;;;;;;;14.42;100.00;100071.13;6021425;28;20038;-65
2023/09/19 02:46:26;;;;;;;8.30;3.43;;;;;;;14.44;100.00;100080.59;6026637;28;20065;-65
2023/09/19 02:49:21;;;;;;;7.57;3.67;;;;;;;14.43;100.00;100080.78;6027040;28;20543;-65
2023/09/19 02:52:16;;;;;;;9.57;3.73;;;;;;;14.40;100.00;100074.00;6027395;28;20038;-64
2023/09/19 02:55:14;;;;;;;6.07;3.40;;;;;;;14.46;100.00;100096.44;6026165;28;20760;-65
2023/09/19 02:58:11;;;;;;;7.85;4.25;;;;;;;14.40;100.00;100076.66;6025978;28;20031;-65
2023/09/19 03:01:11;;;;;;;5.57;3.42;;;;;;;14.50;100.00;100095.03;6026947;28;20486;-64
2023/09/19 03:04:06;;;;;;;8.10;3.90;;;;;;;14.51;100.00;100075.34;6027116;28;20031;-65
2023/09/19 03:07:02;;;;;;;6.85;3.60;;;;;;;14.54;100.00;100070.44;6025975;28;20034;-65
2023/09/19 03:09:57;;;;;;;8.45;3.75;;;;;;;14.60;100.00;100074.19;6019730;28;20433;-64
2023/09/19 03:12:53;;;;;;;10.83;4.13;;;;;;;14.65;100.00;100085.97;6025314;28;20038;-64
2023/09/19 03:15:50;;;;;;;8.38;3.72;;;;;;;14.62;100.00;100082.88;6024930;28;20097;-64
2023/09/19 03:18:47;;;;;;;7.35;3.35;;;;;;;14.61;100.00;100094.53;6026196;28;20049;-65
2023/09/19 03:21:42;;;;;;;6.93;3.42;;;;;;;14.59;100.00;100099.25;6034420;28;20050;-64
2023/09/19 03:24:37;;;;;;;11.90;3.87;;;;;;;14.61;100.00;100113.22;6026567;28;20058;-65
2023/09/19 03:27:36;;;;;;;6.90;3.50;;;;;;;14.55;100.00;100106.78;6025957;28;20042;-65
2023/09/19 03:30:33;;;;;;;8.02;3.15;;;;;;;14.54;100.00;100091.78;6022827;28;20026;-64
2023/09/19 03:33:31;;;;;;;7.70;3.55;;;;;;;14.52;100.00;100095.66;6018233;28;20085;-65
2023/09/19 03:36:29;;;;;;;9.48;4.35;;;;;;;14.59;100.00;100116.09;6025608;28;20037;-65
2023/09/19 03:39:24;;;;;;;9.60;3.65;;;;;;;14.57;100.00;100117.25;6026601;28;20537;-65
2023/09/19 03:42:25;;;;;;;8.07;3.47;;;;;;;14.56;100.00;100105.78;6026075;28;20034;-64
2023/09/19 03:45:20;;;;;;;7.93;3.80;;;;;;;14.67;100.00;100115.16;6024216;28;20057;-65
2023/09/19 03:48:16;;;;;;;8.17;3.57;;;;;;;14.71;100.00;100111.91;6021248;28;20034;-65
2023/09/19 03:51:11;;;;;;;11.13;4.18;;;;;;;14.67;100.00;100107.97;6016344;28;20274;-65
2023/09/19 03:54:07;;;;;;;9.90;4.00;;;;;;;14.90;100.00;100123.84;6022334;28;20037;-65
2023/09/19 03:57:04;;;;;;;8.00;4.07;;;;;;;15.02;100.00;100116.16;6021211;28;20282;-64
2023/09/19 03:59:59;;;;;;;10.00;4.47;;;;;;;14.92;100.00;100104.97;6026104;28;20022;-65
2023/09/19 04:02:56;;;;;;;8.23;3.73;;;;;;;14.85;100.00;100113.72;6025139;28;20433;-64
2023/09/19 04:05:51;;;;;;;8.15;3.28;;;;;;;14.81;100.00;100115.09;6019364;28;20050;-65
2023/09/19 04:08:47;;;;;;;13.60;3.70;;;;;;;14.78;100.00;100139.50;6025600;28;20063;-65
2023/09/19 04:11:42;;;;;;;11.07;3.38;;;;;;;14.58;100.00;100134.94;6025268;28;20474;-65
2023/09/19 04:14:38;;;;;;;9.20;3.83;;;;;;;14.50;100.00;100137.72;6023361;28;20026;-65
2023/09/19 04:17:34;;;;;;;8.60;4.10;;;;;;;14.44;100.00;100149.94;6023444;28;20035;-64
2023/09/19 04:20:29;;;;;;;11.55;4.00;;;;;;;14.30;100.00;100145.41;6024094;28;20469;-64
2023/09/19 04:23:25;;;;;;;8.60;5.00;;;;;;;14.20;100.00;100137.69;6025962;28;20049;-64
2023/09/19 04:26:21;;;;;;;10.20;4.05;;;;;;;14.25;100.00;100159.31;6023507;28;20026;-64
2023/09/19 04:29:19;;;;;;;7.75;3.72;;;;;;;14.34;100.00;100164.59;6021687;28;20034;-64
2023/09/19 04:32:15;;;;;;;10.70;4.00;;;;;;;14.30;100.00;100158.75;6024646;28;20094;-64
2023/09/19 04:35:11;;;;;;;6.13;3.45;;;;;;;14.40;100.00;100170.03;6023475;28;20561;-64
2023/09/19 04:38:06;;;;;;;8.65;3.60;;;;;;;14.42;100.00;100164.50;6025453;28;20030;-65
2023/09/19 04:41:02;;;;;;;16.40;4.43;;;;;;;14.34;100.00;100160.09;6025361;28;20077;-65
2023/09/19 04:43:58;;;;;;;11.03;4.00;;;;;;;14.41;100.00;100174.31;6025378;28;20030;-65
2023/09/19 04:46:53;;;;;;;10.80;4.00;;;;;;;14.30;100.00;100164.06;6024939;28;20273;-64
2023/09/19 04:49:49;;;;;;;8.57;3.63;;;;;;;14.37;100.00;100174.88;6025261;28;20054;-64
2023/09/19 04:52:45;;;;;;;11.88;4.20;;;;;;;14.36;100.00;100197.22;6025267;28;20041;-64
2023/09/19 04:55:40;;;;;;;10.70;3.90;;;;;;;14.27;100.00;100175.94;6024420;28;20540;-65
2023/09/19 04:58:35;;;;;;;10.63;3.60;;;;;;;14.34;100.00;100209.94;6025519;28;20030;-64
2023/09/19 05:01:31;;;;;;;9.60;4.10;;;;;;;14.25;100.00;100199.31;6025366;28;20031;-64
2023/09/19 05:04:26;;;;;;;10.23;4.18;;;;;;;14.15;100.00;100182.75;6024429;28;20037;-63
2023/09/19 05:07:23;;;;;;;11.80;4.60;;;;;;;14.23;100.00;100201.34;6024503;28;20034;-65
2023/09/19 05:10:19;;;;;;;10.23;4.20;;;;;;;14.28;100.00;100198.94;6019224;28;20065;-64
2023/09/19 05:13:15;;;;;;;11.40;4.68;;;;;;;14.35;100.00;100208.94;6025660;28;20027;-64
2023/09/19 05:16:10;;;;;;;9.07;4.10;;;;;;;14.30;100.00;100212.94;6024041;28;20477;-64
2023/09/19 05:19:05;;;;;;;5.93;3.57;;;;;;;14.29;100.00;100213.13;6029719;28;20034;-64
2023/09/19 05:22:01;;;;;;;9.88;4.40;;;;;;;14.22;100.00;100204.16;6029369;28;20026;-64
2023/09/19 05:24:56;;;;;;;10.20;3.53;;;;;;;14.28;100.00;100222.97;6028394;28;20103;-65
2023/09/19 05:27:53;;;;;;;8.93;4.13;;;;;;;14.32;100.00;100225.28;6025968;28;20042;-65
2023/09/19 05:30:48;;;;;;;12.13;4.45;;;;;;;14.18;100.00;100203.72;6029094;28;20097;-65
2023/09/19 05:33:44;;;;;;;13.23;4.43;;;;;;;14.13;100.00;100206.09;6029244;28;20042;-64
2023/09/19 05:36:39;;;;;;;8.53;3.60;;;;;;;14.22;100.00;100223.69;6028566;28;20281;-65
2023/09/19 05:39:34;;;;;;;9.67;4.10;;;;;;;14.09;100.00;100196.81;6028525;28;20291;-65
2023/09/19 05:42:30;;;;;;;7.77;4.07;;;;;;;14.19;100.00;100226.69;6029187;28;20030;-64
2023/09/19 05:45:25;;;;;;;12.27;3.70;;;;;;;14.30;100.00;100225.44;6028027;28;20038;-64
2023/09/19 05:48:21;;;;;;;6.95;3.80;;;;;;;14.17;100.00;100234.06;6029116;28;20101;-64
2023/09/19 05:51:17;;;;;;;12.97;3.97;;;;;;;14.27;100.00;100233.78;6028151;28;20038;-64
2023/09/19 05:54:13;;;;;;;12.23;3.83;;;;;;;14.29;100.00;100243.25;6032859;28;20041;-64
2023/09/19 05:57:08;;;;;;;12.13;3.85;;;;;;;14.34;100.00;100242.78;6028263;28;20034;-65
2023/09/19 06:00:08;;;;;;;9.73;3.80;;;;;;;14.22;100.00;100223.69;6028497;28;20038;-64
2023/09/19 06:03:04;;;;;;;8.68;3.65;;;;;;;14.25;100.00;100219.81;6028954;28;20038;-64
2023/09/19 06:05:59;;;;;;;10.77;3.50;;;;;;;14.36;100.00;100243.41;6027503;28;20038;-64
2023/09/19 06:08:54;;;;;;;7.43;3.50;;;;;;;14.32;100.00;100251.97;6027725;28;20085;-64
2023/09/19 06:11:51;;;;;;;7.17;3.43;;;;;;;14.27;100.00;100258.63;6028618;28;20289;-64
2023/09/19 06:14:46;;;;;;;5.93;3.42;;;;;;;14.44;100.00;100277.19;6026835;28;20269;-64
2023/09/19 06:17:42;;;;;;;7.38;3.47;;;;;;;14.56;100.00;100271.25;6028315;28;20502;-65
2023/09/19 06:20:44;;;;;;;8.60;3.45;;;;;;;14.74;100.00;100278.88;6028792;28;20038;-65
2023/09/19 06:23:39;;;;;;;10.10;3.25;;;;;;;14.92;100.00;100282.00;6019244;28;20113;-64
2023/09/19 06:26:34;;;;;;;9.60;3.80;;;;;;;14.94;100.00;100276.50;6027639;28;20149;-65
2023/09/19 06:29:30;;;;;;;9.13;3.33;;;;;;;15.03;100.00;100270.84;6027923;28;20038;-65
2023/09/19 06:32:28;;;;;;;10.73;3.03;;;;;;;15.08;100.00;100283.66;6028123;28;20173;-65
2023/09/19 06:35:26;;;;;;;7.10;3.28;;;;;;;15.10;100.00;100290.47;6026180;28;20045;-65
2023/09/19 06:38:21;;;;;;;10.93;3.30;;;;;;;15.25;100.00;100307.31;6025965;28;20129;-64
2023/09/19 06:41:17;;;;;;;13.73;3.60;;;;;;;15.42;100.00;100308.75;6027790;28;20030;-64
2023/09/19 06:44:12;;;;;;;9.73;3.45;;;;;;;15.44;100.00;100296.03;6026054;28;20262;-64
2023/09/19 06:47:09;;;;;;;8.90;3.13;;;;;;;15.39;100.00;100287.75;6026994;28;20030;-65
2023/09/19 06:50:06;;;;;;;13.50;3.55;;;;;;;15.37;100.00;100291.63;6027352;28;20042;-65
2023/09/19 06:53:02;;;;;;;11.88;3.20;;;;;;;15.41;100.00;100279.53;6027796;28;20125;-65
2023/09/19 06:55:58;;;;;;;8.93;2.92;;;;;;;15.71;100.00;100288.38;6038333;28;20057;-65
2023/09/19 06:58:53;;;;;;;10.77;3.60;;;;;;;15.69;100.00;100290.38;6027261;28;20401;-65
2023/09/19 07:01:50;;;;;;;11.93;3.30;;;;;;;15.66;100.00;100274.72;6027275;28;20066;-64
2023/09/19 07:04:46;;;;;;;12.27;2.78;;;;;;;15.72;100.00;100268.63;6026843;28;20030;-65
2023/09/19 07:07:41;;;;;;;9.30;2.92;;;;;;;15.82;99.41;100286.00;6026789;28;20636;-64
2023/09/19 07:10:37;;;;;;;6.73;3.33;;;;;;;15.86;100.00;100291.81;6032214;28;20481;-65
2023/09/19 07:13:32;;;;;;;7.17;2.70;;;;;;;15.93;98.09;100314.09;6022533;28;20383;-65
2023/09/19 07:16:29;;;;;;;10.20;2.87;;;;;;;15.83;98.88;100316.25;6025188;28;20031;-64
2023/09/19 07:19:24;;;;;;;6.60;2.85;;;;;;;15.83;99.76;100308.22;6026153;28;20266;-64
2023/09/19 07:22:19;;;;;;;8.10;2.95;;;;;;;15.98;98.35;100315.16;6027809;28;20367;-65
2023/09/19 07:25:15;;;;;;;7.90;2.80;;;;;;;16.04;96.66;100314.41;6026070;28;20033;-64
2023/09/19 07:28:10;;;;;;;9.77;2.40;;;;;;;16.17;95.67;100321.72;6026161;28;20027;-64
2023/09/19 07:31:09;;;;;;;9.37;2.43;;;;;;;16.20;96.47;100312.50;6026720;28;20053;-65
2023/09/19 07:34:05;;;;;;;7.85;2.42;;;;;;;16.17;94.44;100321.72;6026198;28;20034;-65
2023/09/19 07:37:00;;;;;;;9.00;2.40;;;;;;;16.08;92.55;100323.72;6025835;28;20038;-65
2023/09/19 07:39:55;;;;;;;7.43;2.20;;;;;;;16.28;92.19;100329.25;6026464;28;20042;-65
2023/09/19 07:42:51;;;;;;;13.57;2.57;;;;;;;16.56;91.95;100337.34;6026243;28;20496;-65
2023/09/19 07:45:47;;;;;;;7.20;2.00;;;;;;;16.58;90.54;100330.75;6025138;28;20038;-65
2023/09/19 07:48:47;;;;;;;6.80;2.47;;;;;;;16.73;88.54;100333.34;6026109;28;20039;-65
2023/09/19 07:51:46;;;;;;;10.90;2.45;;;;;;;16.79;86.97;100342.47;6019491;28;20507;-65
2023/09/19 07:54:43;;;;;;;6.93;1.85;;;;;;;16.74;84.88;100360.97;6025668;28;20038;-64
2023/09/19 07:57:41;;;;;;;8.93;2.00;;;;;;;16.62;85.44;100348.13;6025847;28;20036;-65
2023/09/19 08:00:36;;;;;;;7.25;2.38;;;;;;;16.72;86.23;100352.28;6025849;28;20044;-64
2023/09/19 08:03:32;;;;;;;6.97;1.73;;;;;;;16.57;85.39;100360.44;6025771;28;20038;-64
2023/09/19 08:06:29;;;;;;;7.30;1.80;;;;;;;16.56;84.08;100375.66;6025370;28;20030;-64
2023/09/19 08:09:25;;;;;;;8.30;1.50;;;;;;;16.58;83.84;100383.47;6025632;28;20042;-65
2023/09/19 08:12:24;;;;;;;8.68;1.60;;;;;;;16.60;84.01;100352.81;6026029;28;20057;-64
2023/09/19 08:15:19;;;;;;;6.22;1.30;;;;;;;16.95;84.35;100369.78;6025102;28;20030;-64
2023/09/19 08:18:16;;;;;;;7.95;1.70;;;;;;;16.94;83.15;100359.25;6025210;28;20489;-64
2023/09/19 08:21:12;;;;;;;6.53;1.42;;;;;;;17.03;79.89;100360.75;6027502;28;20038;-64
2023/09/19 08:24:09;;;;;;;7.13;1.73;;;;;;;16.79;80.76;100359.38;6025418;28;20089;-64
2023/09/19 08:27:05;;;;;;;8.82;1.50;;;;;;;16.77;82.66;100360.59;6025334;28;20122;-65
2023/09/19 08:30:01;;;;;;;10.98;1.55;;;;;;;17.01;80.11;100371.66;6025595;28;20030;-65
2023/09/19 08:33:00;;;;;;;6.43;1.40;;;;;;;16.92;79.33;100370.16;6025368;28;20026;-65
2023/09/19 08:35:55;;;;;;;6.82;1.42;;;;;;;16.75;81.35;100362.59;6019313;28;20038;-65
2023/09/19 08:38:51;;;;;;;6.00;1.20;;;;;;;16.80;80.52;100371.72;6025444;28;20035;-65
2023/09/19 08:41:46;;;;;;;5.40;1.30;;;;;;;16.65;79.64;100361.13;6025397;28;20046;-65
2023/09/19 08:44:43;;;;;;;9.63;1.57;;;;;;;16.79;80.98;100366.56;6025117;28;20413;-64
2023/09/19 08:47:45;;;;;;;7.85;1.88;;;;;;;16.82;78.90;100360.81;6026675;28;20369;-64
2023/09/19 08:50:49;;;;;;;5.50;1.30;;;;;;;16.97;77.97;100377.63;6029874;28;20046;-64
2023/09/19 08:53:59;;;;;;;4.03;1.27;;;;;;;17.14;77.48;100371.78;6029958;28;20030;-65
2023/09/19 08:56:54;;;;;;;7.05;1.40;;;;;;;17.22;74.75;100365.41;6029690;28;20470;-65
2023/09/19 08:59:51;;;;;;;9.50;1.75;;;;;;;17.26;74.63;100355.94;6029996;28;20041;-64
2023/09/19 09:02:47;;;;;;;6.90;1.85;;;;;;;17.16;74.38;100345.59;6029852;28;20065;-64
2023/09/19 09:05:46;;;;;;;8.32;1.98;;;;;;;17.44;75.61;100371.50;6037457;28;20038;-65
2023/09/19 09:08:42;;;;;;;5.65;1.60;;;;;;;17.24;72.24;100371.41;6029418;28;20042;-64
2023/09/19 09:11:39;;;;;;;6.45;0.95;;;;;;;17.30;73.16;100384.03;6028569;28;20043;-64
2023/09/19 09:14:35;;;;;;;7.45;1.30;;;;;;;17.22;74.07;100374.28;6028467;28;20038;-65
2023/09/19 09:17:30;;;;;;;10.77;1.50;;;;;;;17.39;73.01;100393.56;6027686;28;20069;-65
2023/09/19 09:20:25;;;;;;;4.23;1.40;;;;;;;17.45;73.51;100406.16;6031549;28;20121;-64
2023/09/19 09:23:21;;;;;;;8.03;1.30;;;;;;;17.38;72.14;100397.25;6028940;28;20760;-64
2023/09/19 09:26:16;;;;;;;8.93;1.65;;;;;;;17.41;71.99;100399.56;6028657;28;20062;-64
2023/09/19 09:29:11;;;;;;;3.83;1.40;;;;;;;17.48;72.03;100396.88;6029671;28;20046;-64
2023/09/19 09:32:28;;;;;;;7.30;1.40;;;;;;;17.62;71.35;100401.31;6029374;28;20269;-65
2023/09/19 09:35:24;;;;;;;6.68;1.30;;;;;;;17.39;71.72;100395.41;6026010;28;20301;-64
2023/09/19 09:38:27;;;;;;;6.18;1.40;;;;;;;17.35;70.90;100389.59;6027995;28;20393;-64
2023/09/19 09:41:37;;;;;;;10.98;1.45;;;;;;;17.44;72.42;100399.16;6020986;28;20084;-65
2023/09/19 09:44:32;;;;;;;3.60;1.33;;;;;;;17.71;72.26;100403.66;6029032;28;20030;-65
2023/09/19 09:47:55;;;;;;;6.47;1.50;;;;;;;17.67;70.56;100410.44;6028062;28;20064;-64
2023/09/19 09:50:55;;;;;;;4.47;1.05;;;;;;;17.88;71.15;100406.00;6029078;28;20034;-65
2023/09/19 09:53:52;;;;;;;6.65;1.30;;;;;;;17.70;69.20;100395.78;6028701;28;20042;-64
2023/09/19 09:56:58;;;;;;;6.93;1.30;;;;;;;17.97;69.35;100394.88;6027847;28;20124;-64
2023/09/19 09:59:57;;;;;;;5.28;1.33;;;;;;;18.03;70.05;100390.53;6022117;28;20144;-65
2023/09/19 10:02:53;;;;;;;4.75;1.30;;;;;;;17.90;69.97;100406.59;6028744;28;20041;-64
2023/09/19 10:05:55;;;;;;;5.20;1.10;;;;;;;17.71;69.43;100400.97;6027812;28;20034;-65
2023/09/19 10:12:08;;;;;;;4.25;1.40;;;;;;;17.78;68.29;100412.53;6028033;28;20068;-65
2023/09/19 10:15:06;;;;;;;4.72;1.20;;;;;;;17.56;67.37;100397.59;6027558;28;20576;-63
2023/09/19 10:18:04;;;;;;;6.32;1.50;;;;;;;17.84;69.41;100417.13;6027098;28;20466;-63
2023/09/19 10:21:01;;;;;;;7.15;1.23;;;;;;;18.03;68.64;100406.66;6030632;28;20088;-64
2023/09/19 10:23:59;;;;;;;7.43;1.45;;;;;;;18.06;65.80;100414.31;6028013;28;20034;-64
2023/09/19 10:26:55;;;;;;;7.63;1.33;;;;;;;18.13;65.16;100402.53;6027526;28;20619;-64
2023/09/19 10:29:51;;;;;;;4.15;1.23;;;;;;;18.15;66.87;100423.84;6026584;28;20034;-64
2023/09/19 10:32:52;;;;;;;7.05;1.20;;;;;;;18.20;67.31;100405.25;6026496;28;20089;-64
2023/09/19 10:35:54;;;;;;;7.50;1.60;;;;;;;18.26;67.97;100412.50;6018522;28;20575;-64
2023/09/19 10:38:50;;;;;;;6.15;1.50;;;;;;;18.34;67.10;100398.91;6020638;28;20034;-64
2023/09/19 10:41:53;;;;;;;3.92;1.05;;;;;;;18.72;67.24;100413.44;6025202;28;20097;-63
2023/09/19 10:44:53;;;;;;;7.47;1.65;;;;;;;18.60;66.56;100415.06;6027149;28;20103;-64
2023/09/19 10:47:51;;;;;;;4.13;1.38;;;;;;;18.32;66.31;100411.66;6021634;28;20026;-64
2023/09/19 10:50:50;;;;;;;6.90;1.50;;;;;;;18.39;67.68;100394.56;6019852;28;20112;-64
2023/09/19 10:53:54;;;;;;;5.75;1.70;;;;;;;18.67;68.02;100386.34;6041438;28;20030;-65
2023/09/19 10:56:51;;;;;;;3.92;1.15;;;;;;;18.65;65.30;100396.47;6031624;28;20022;-64
2023/09/19 11:00:24;;;;;;;6.18;1.50;;;;;;;18.89;65.97;100403.91;6019747;28;20030;-64
2023/09/19 11:03:23;;;;;;;4.13;1.33;;;;;;;19.12;64.36;100383.84;6023061;28;20217;-64
2023/09/19 11:06:19;;;;;;;8.35;1.25;;;;;;;19.15;62.94;100402.22;6021939;28;20086;-64
2023/09/19 11:12:10;;;;;;;5.03;1.30;;;;;;;18.82;63.27;100405.78;6026620;28;20485;-64
2023/09/19 11:15:08;;;;;;;6.63;1.50;;;;;;;18.84;65.17;100401.00;6026000;28;20026;-64
2023/09/19 11:18:41;;;;;;;4.90;1.40;;;;;;;18.95;62.89;100403.09;6026991;28;20381;-64
2023/09/19 11:21:38;;;;;;;6.65;1.50;;;;;;;19.01;65.22;100402.25;6026656;28;20109;-64
2023/09/19 11:24:36;;;;;;;4.93;1.40;;;;;;;18.91;65.23;100380.34;6020359;28;20046;-64
2023/09/19 11:27:34;;;;;;;4.32;1.30;;;;;;;18.88;65.45;100390.69;6022993;28;20104;-64
2023/09/19 11:30:30;;;;;;;7.20;1.60;;;;;;;18.68;64.96;100382.63;6024651;28;20043;-64
2023/09/19 11:33:38;;;;;;;6.40;1.30;;;;;;;18.97;63.08;100387.56;6026533;28;20078;-64
2023/09/19 11:36:38;;;;;;;6.50;1.77;;;;;;;18.94;61.78;100393.34;6025507;28;20037;-65
2023/09/19 11:39:33;;;;;;;6.97;1.60;;;;;;;19.02;63.04;100385.06;6026111;28;20045;-64
2023/09/19 11:42:53;;;;;;;8.87;1.63;;;;;;;19.06;62.16;100381.97;6026434;28;20031;-64
2023/09/19 11:45:57;;;;;;;6.65;1.70;;;;;;;19.15;61.63;100392.31;6025662;28;20035;-64
2023/09/19 11:48:52;;;;;;;9.43;1.70;;;;;;;19.30;61.21;100392.06;6023987;28;20088;-65
2023/09/19 11:51:50;;;;;;;7.82;2.00;;;;;;;19.20;58.85;100389.00;6024618;28;20057;-64
2023/09/19 11:54:51;;;;;;;3.28;1.35;;;;;;;19.21;59.18;100390.66;6015005;28;20550;-64
2023/09/19 11:57:50;;;;;;;6.60;1.60;;;;;;;19.22;61.78;100386.91;6024741;28;20027;-64
2023/09/19 12:00:54;;;;;;;6.53;1.50;;;;;;;19.41;61.42;100380.69;6024769;28;20119;-64
2023/09/19 12:03:54;;;;;;;7.60;1.63;;;;;;;19.61;59.49;100370.69;6018192;28;20029;-64
2023/09/19 12:06:56;;;;;;;6.35;1.70;;;;;;;19.38;59.31;100376.56;6017478;28;20029;-64
2023/09/19 12:10:04;;;;;;;3.97;1.60;;;;;;;19.40;58.94;100395.19;6017502;28;20470;-65
2023/09/19 12:12:59;;;;;;;5.10;1.40;;;;;;;19.16;58.55;100395.84;6019342;28;20397;-64
2023/09/19 12:15:55;;;;;;;6.18;1.48;;;;;;;19.25;59.46;100387.31;6021632;28;20061;-64
2023/09/19 12:18:59;;;;;;;7.30;1.98;;;;;;;19.23;60.89;100380.50;6026420;28;20088;-65
2023/09/19 12:22:04;;;;;;;7.40;2.25;;;;;;;19.13;59.08;100394.41;6015418;28;20119;-64
2023/09/19 12:25:06;;;;;;;7.40;1.73;;;;;;;19.23;58.74;100385.88;6017585;28;20033;-64
2023/09/19 12:28:02;;;;;;;5.25;2.00;;;;;;;19.24;59.44;100379.47;6020736;28;20125;-64
2023/09/19 12:31:06;;;;;;;5.43;1.92;;;;;;;19.23;60.19;100393.94;6018663;28;20446;-63
2023/09/19 12:34:02;;;;;;;6.43;2.20;;;;;;;19.08;60.18;100394.16;6017457;28;20466;-63
2023/09/19 12:37:21;;;;;;;5.70;1.90;;;;;;;19.10;59.77;100378.69;6019202;28;20042;-64
2023/09/19 12:40:17;;;;;;;5.25;1.67;;;;;;;19.29;59.02;100377.81;6007110;28;20041;-66
2023/09/19 12:43:15;;;;;;;6.53;1.67;;;;;;;19.11;58.78;100390.22;6033167;28;20038;-66
2023/09/19 12:46:10;;;;;;;6.30;1.90;;;;;;;18.98;59.77;100388.41;6023028;28;20038;-67
2023/09/19 12:49:18;;;;;;;6.57;1.98;;;;;;;18.64;59.10;100386.78;6015001;28;20057;-63
2023/09/19 12:52:14;;;;;;;5.03;1.75;;;;;;;18.55;59.67;100379.09;6006311;28;20039;-66
2023/09/19 12:55:20;;;;;;;6.75;1.58;;;;;;;18.70;61.22;100388.63;6004131;28;20040;-67
2023/09/19 12:58:16;;;;;;;4.35;1.60;;;;;;;18.85;60.12;100389.25;6016961;28;20039;-64
2023/09/19 13:01:15;;;;;;;5.53;1.50;;;;;;;18.82;59.49;100380.75;6006264;28;20061;-64
2023/09/19 13:04:19;;;;;;;3.17;1.40;;;;;;;18.91;58.99;100395.66;6013154;28;20038;-64
2023/09/19 13:07:43;;;;;;;5.60;1.80;;;;;;;19.02;58.58;100382.38;6004663;28;20046;-64
2023/09/19 13:11:00;;;;;;;8.02;1.60;;;;;;;18.83;58.64;100380.53;6008158;28;20109;-64
2023/09/19 13:14:15;;;;;;;8.05;2.58;;;;;;;19.00;58.65;100379.09;6014056;28;20019;-64
2023/09/19 13:17:16;;;;;;;8.07;1.98;;;;;;;19.07;58.64;100384.47;6002634;28;20090;-64
2023/09/19 13:20:27;;;;;;;4.20;1.67;;;;;;;19.12;57.38;100362.31;6011159;28;20038;-64
2023/09/19 13:23:26;;;;;;;7.88;1.98;;;;;;;19.19;57.04;100369.34;6007286;28;20110;-63
2023/09/19 13:26:22;;;;;;;7.15;2.08;;;;;;;19.11;57.14;100360.66;6019056;28;20117;-64
2023/09/19 13:29:19;;;;;;;7.28;1.80;;;;;;;19.15;57.04;100360.06;6013717;28;20050;-64
2023/09/19 13:32:14;;;;;;;6.47;2.05;;;;;;;19.44;56.90;100358.75;6002552;28;20130;-64
2023/09/19 13:35:10;;;;;;;9.60;2.00;;;;;;;19.36;56.26;100361.63;5999803;28;20046;-64
2023/09/19 13:38:08;;;;;;;7.18;1.75;;;;;;;19.12;56.54;100349.72;6002932;28;20038;-64
2023/09/19 13:41:03;;;;;;;6.05;1.70;;;;;;;19.09;56.21;100352.00;6012337;28;20101;-64
2023/09/19 13:44:00;;;;;;;7.17;2.20;;;;;;;19.09;57.27;100342.06;6023013;28;20085;-64
2023/09/19 13:46:56;;;;;;;3.88;1.55;;;;;;;19.25;55.96;100351.53;6018478;28;20376;-64
2023/09/19 13:49:52;;;;;;;6.38;1.67;;;;;;;19.11;56.95;100357.97;6019763;28;20081;-63